KLAR

Laramie Regional Airport

Laramie, Wyoming, USA
KLAR 182322Z 1900/1924 26022G32KT P6SM FEW220 FM190100 27035G50KT P6SM BKN200 WS020/28050KT FM191500 29037G52KT P6SM SCT130
Issued Valid From Valid To
Dec-18 @ 23:22 UTC
(2 hours ago)
Dec-19 @ 00:00 UTC
(an hour ago)
Dec-20 @ 00:00 UTC
(in 23 hours)
Expired Click to View Dec-19 @ 00:00 to Dec-19 @ 01:00
KLAR 182322Z 1900/1924 26022G32KT P6SM FEW220
Wind Visibility Clouds
260° at 22 knots
 Gusting to 32 knots
Greater than 6 miles
  • Few at 22,000' AGL
From Dec-19 @ 01:00 to Dec-19 @ 15:00
FM190100 27035G50KT P6SM BKN200 WS020/28050KT
Wind Visibility Clouds
270° at 35 knots
 Gusting to 50 knots
 Wind shear 2,000' AGL from 280° at 50 knots
Greater than 6 miles
  • Broken at 20,000' AGL
From Dec-19 @ 15:00 to Dec-20 @ 00:00
FM191500 29037G52KT P6SM SCT130
Wind Visibility Clouds
290° at 37 knots
 Gusting to 52 knots
Greater than 6 miles
  • Scattered at 13,000' AGL
KLAR 182322Z 1900/1924 26022G32KT P6SM FEW220 FM190100 27035G50KT P6SM BKN200 WS020/28050KT FM191500 29037G52KT P6SM SCT130
Issued Dec-18 @ 23:22 UTC
(2 hours ago)
Valid From Dec-19 @ 00:00 UTC
(an hour ago)
Valid To Dec-20 @ 00:00 UTC
(in 23 hours)
Dec-19 @ 00:00 - Dec-19 @ 01:00
Wind Visibility
260° at 22 knots
 Gusting to 32 knots
Greater than 6 miles
Clouds
  • Few at 22,000' AGL
From Dec-19 @ 01:00 - Dec-19 @ 15:00
Wind Visibility
270° at 35 knots
 Gusting to 50 knots
Greater than 6 miles
Clouds
  • Broken at 20,000' AGL
From Dec-19 @ 15:00 - Dec-20 @ 00:00
Wind Visibility
290° at 37 knots
 Gusting to 52 knots
Greater than 6 miles
Clouds
  • Scattered at 13,000' AGL